Time;durP1;ratioP1;P1;durP2;ratioP2;P2;SDS_P1;SDS_P2;PMS_P1;PMS_P2;Temp;Humidity;BMP_temperature;BMP_pressure;BME280_temperature;BME280_humidity;BME280_pressure;Samples;Min_cycle;Max_cycle;Signal;HPM_P1;HPM_P2
2021/07/19 00:19:19;;;;;;;;;;;;;;;25.19;43.52;101447.41;5023462;28;97892;-92
2021/07/19 00:21:49;;;;;;;;;;;;;;;24.70;44.28;101453.34;5031368;28;97774;-92
2021/07/19 00:24:17;;;;;;;;;;;;;;;24.88;44.05;101457.22;5006349;28;99242;-91
2021/07/19 00:26:47;;;;;;;;;;;;;;;24.58;44.00;101447.13;5025671;28;96777;-93
2021/07/19 00:31:54;;;;;;;;;;;;;;;25.42;42.10;101445.41;5041314;28;97724;-92
2021/07/19 00:45:49;;;;;;;;;;;;;;;24.49;43.42;101455.13;5039233;27;98744;-91
2021/07/19 00:48:18;;;;;;;;;;;;;;;24.91;42.32;101453.44;5042662;27;98390;-92
2021/07/19 00:59:02;;;;;;;;;;;;;;;24.18;43.33;101460.31;5053066;27;97241;-90
2021/07/19 01:04:30;;;;;;;;;;;;;;;24.18;43.01;101463.03;5052611;27;98977;-90
2021/07/19 01:07:00;;;;;;;;;;;;;;;23.31;45.90;101455.56;5051610;27;98683;-88
2021/07/19 01:20:21;;;;;;;;;;;;;;;23.76;45.71;101464.63;5013150;28;96506;-91
2021/07/19 01:26:11;;;;;;;;;;;;;;;24.17;44.77;101469.41;5011157;28;98934;-92
2021/07/19 01:28:53;;;;;;;;;;;;;;;23.24;47.23;101472.34;5000569;28;98695;-91
2021/07/19 01:31:26;;;;;;;;;;;;;;;23.85;46.13;101476.53;5003760;28;96820;-92
2021/07/19 01:36:41;;;;;;;;;;;;;;;23.47;46.48;101486.75;5014497;28;100024;-91
2021/07/19 01:47:32;;;;;;;;;;;;;;;24.01;44.53;101497.78;5026620;28;98919;-92
2021/07/19 01:56:14;;;;;;;;;;;;;;;23.68;44.73;101512.09;5024794;27;96684;-93
2021/07/19 02:13:01;;;;;;;;;;;;;;;23.22;45.25;101504.84;5031717;28;97767;-92
2021/07/19 02:15:33;;;;;;;;;;;;;;;22.86;45.30;101502.22;5031316;28;96613;-92
2021/07/19 02:18:04;;;;;;;;;;;;;;;22.50;46.38;101492.31;5028613;28;96765;-89
2021/07/19 02:23:43;;;;;;;;;;;;;;;22.71;45.81;101496.09;5092949;27;96258;-94
2021/07/19 02:26:28;;;;;;;;;;;;;;;23.07;45.17;101497.91;5083245;27;96576;-92
2021/07/19 02:32:00;;;;;;;;;;;;;;;23.28;44.44;101501.66;5069918;27;98523;-92
2021/07/19 02:34:29;;;;;;;;;;;;;;;22.96;44.83;101497.88;5090798;27;97631;-92
2021/07/19 02:36:56;;;;;;;;;;;;;;;22.70;45.47;101499.78;5094379;27;96508;-93
2021/07/19 02:42:09;;;;;;;;;;;;;;;22.44;46.12;101506.25;5086724;27;98688;-91
2021/07/19 02:44:39;;;;;;;;;;;;;;;22.42;46.07;101511.72;5100317;27;96299;-91
2021/07/19 02:47:08;;;;;;;;;;;;;;;22.44;45.81;101514.31;5099348;27;96550;-90
2021/07/19 02:49:38;;;;;;;;;;;;;;;22.31;46.10;101519.72;5098420;27;98131;-88
2021/07/19 02:52:06;;;;;;;;;;;;;;;22.07;46.56;101516.09;5099814;27;98712;-89
2021/07/19 02:54:33;;;;;;;;;;;;;;;22.48;45.78;101513.97;5098490;27;96121;-88
2021/07/19 02:57:01;;;;;;;;;;;;;;;22.38;46.07;101514.75;5085689;27;96088;-91
2021/07/19 02:59:28;;;;;;;;;;;;;;;21.57;47.61;101514.25;5091666;27;98094;-91
2021/07/19 03:01:57;;;;;;;;;;;;;;;21.50;48.10;101527.25;5075785;27;97739;-91
2021/07/19 03:07:30;;;;;;;;;;;;;;;21.36;48.27;101530.03;5083823;27;96734;-91
2021/07/19 03:15:29;;;;;;;;;;;;;;;21.04;47.79;101543.78;5081240;27;97671;-92
2021/07/19 03:23:35;;;;;;;;;;;;;;;21.02;47.59;101547.50;5022939;28;99242;-92
2021/07/19 03:26:19;;;;;;;;;;;;;;;20.83;47.50;101550.56;5023795;28;96469;-91
2021/07/19 03:34:13;;;;;;;;;;;;;;;20.60;47.35;101556.56;5016266;28;99736;-93
2021/07/19 03:36:41;;;;;;;;;;;;;;;21.19;46.33;101563.44;5021017;28;96684;-92
2021/07/19 03:41:51;;;;;;;;;;;;;;;21.07;45.85;101562.38;5006015;28;96847;-93
2021/07/19 03:47:00;;;;;;;;;;;;;;;21.59;44.62;101568.78;5016662;28;96624;-94
2021/07/19 03:57:54;;;;;;;;;;;;;;;21.42;44.12;101576.16;5012905;28;96570;-94
2021/07/19 04:00:41;;;;;;;;;;;;;;;21.39;44.56;101570.16;5016949;28;96691;-93
2021/07/19 04:03:30;;;;;;;;;;;;;;;20.48;46.40;101570.78;5011244;28;98158;-94
2021/07/19 04:06:17;;;;;;;;;;;;;;;21.39;44.21;101572.84;5013300;28;98801;-94
2021/07/19 04:08:46;;;;;;;;;;;;;;;21.51;43.75;101576.50;5013117;28;96804;-92
2021/07/19 04:11:16;;;;;;;;;;;;;;;21.47;43.89;101586.59;5012853;28;96690;-94
2021/07/19 04:16:26;;;;;;;;;;;;;;;20.59;45.60;101570.97;5005474;28;96846;-92
2021/07/19 04:21:38;;;;;;;;;;;;;;;21.04;44.63;101581.38;5020706;28;96174;-93
2021/07/19 04:27:20;;;;;;;;;;;;;;;21.75;42.80;101590.97;5002473;28;96608;-87
2021/07/19 04:35:29;;;;;;;;;;;;;;;21.09;44.13;101584.63;5023203;28;96531;-86
2021/07/19 04:37:58;;;;;;;;;;;;;;;21.15;43.71;101585.19;5024150;28;96742;-91
2021/07/19 04:40:28;;;;;;;;;;;;;;;21.91;42.52;101578.19;5022768;28;97082;-91
2021/07/19 04:45:47;;;;;;;;;;;;;;;22.04;41.86;101584.47;5022142;28;98918;-91
2021/07/19 04:48:16;;;;;;;;;;;;;;;22.32;41.22;101575.28;5015994;28;96832;-91
2021/07/19 04:50:56;;;;;;;;;;;;;;;22.53;40.83;101583.66;5015544;28;97436;-92
2021/07/19 04:59:20;;;;;;;;;;;;;;;22.66;40.53;101581.78;5007336;28;99772;-92
2021/07/19 05:01:53;;;;;;;;;;;;;;;22.53;40.55;101587.19;5011383;28;97726;-92
2021/07/19 05:07:11;;;;;;;;;;;;;;;22.36;40.84;101582.19;5008503;28;100114;-93
2021/07/19 05:09:40;;;;;;;;;;;;;;;22.58;40.38;101597.63;5010402;28;99716;-94
2021/07/19 05:12:14;;;;;;;;;;;;;;;22.72;39.63;101596.63;5011332;28;97010;-94
2021/07/19 05:14:42;;;;;;;;;;;;;;;22.69;40.29;101597.75;5091087;22;96507;-93
2021/07/19 05:22:56;;;;;;;;;;;;;;;23.69;37.40;101602.84;5973293;22;100303;-85
2021/07/19 05:25:36;;;;;;;;;;;;;;;23.40;38.21;101603.19;5064460;27;97776;-84
2021/07/19 05:31:16;;;;;;;;;;;;;;;22.82;39.06;101604.00;5063685;27;96671;-86
2021/07/19 05:33:45;;;;;;;;;;;;;;;22.80;39.29;101602.38;5062363;27;95973;-92
2021/07/19 05:39:12;;;;;;;;;;;;;;;23.64;38.21;101584.31;5062764;27;99144;-90
2021/07/19 05:44:24;;;;;;;;;;;;;;;23.00;39.44;101604.47;5061307;27;96069;-90
2021/07/19 05:46:52;;;;;;;;;;;;;;;23.04;39.30;101600.56;5062327;27;96296;-87
2021/07/19 05:49:22;;;;;;;;;;;;;;;22.71;39.77;101603.03;5063370;27;97116;-87
2021/07/19 05:51:54;;;;;;;;;;;;;;;22.87;39.57;101609.03;5063326;27;98060;-86
2021/07/19 06:08:26;;;;;;;;;;;;;;;21.81;41.84;101615.63;5132097;22;98814;-89
2021/07/19 06:21:22;;;;;;;;;;;;;;;23.43;38.82;101607.53;5050345;27;98602;-85
2021/07/19 06:34:11;;;;;;;;;;;;;;;23.84;38.28;101607.06;5367318;22;99672;-90
2021/07/19 06:37:08;;;;;;;;;;;;;;;22.97;40.03;101604.69;5061527;27;95894;-91
2021/07/19 06:39:46;;;;;;;;;;;;;;;22.74;40.35;101613.59;5061533;27;95906;-88
2021/07/19 06:45:03;;;;;;;;;;;;;;;22.78;40.25;101601.59;5057679;27;98284;-89
2021/07/19 06:47:30;;;;;;;;;;;;;;;24.13;37.81;101605.66;5062435;27;96190;-88
2021/07/19 06:55:20;;;;;;;;;;;;;;;25.12;36.10;101607.59;5029853;28;96759;-90
2021/07/19 06:57:49;;;;;;;;;;;;;;;24.82;36.05;101608.22;5049402;27;96738;-86
2021/07/19 07:00:54;;;;;;;;;;;;;;;25.10;36.05;101615.84;5036282;27;96872;-88
2021/07/19 07:03:22;;;;;;;;;;;;;;;24.73;35.88;101611.69;5055007;27;96839;-88
2021/07/19 07:05:49;;;;;;;;;;;;;;;25.01;35.64;101612.03;5057110;27;99171;-88
2021/07/19 07:08:17;;;;;;;;;;;;;;;24.84;35.61;101614.38;5049294;27;96866;-88
2021/07/19 07:19:47;;;;;;;;;;;;;;;24.67;36.01;101602.25;5055417;27;96907;-86
2021/07/19 07:25:29;;;;;;;;;;;;;;;24.54;36.12;101602.38;5049562;27;98865;-88
2021/07/19 07:28:11;;;;;;;;;;;;;;;24.32;36.36;101606.91;5055537;27;99735;-84
2021/07/19 07:30:38;;;;;;;;;;;;;;;23.75;37.38;101597.00;5051799;27;97010;-87
2021/07/19 07:33:05;;;;;;;;;;;;;;;23.92;37.53;101607.31;5054532;27;96837;-87
2021/07/19 07:35:40;;;;;;;;;;;;;;;24.20;37.05;101603.34;5050333;27;98150;-87
2021/07/19 07:38:16;;;;;;;;;;;;;;;24.50;35.93;101594.63;5057452;27;98046;-88
2021/07/19 07:40:48;;;;;;;;;;;;;;;25.26;35.01;101599.19;5039040;27;96803;-87
2021/07/19 07:48:46;;;;;;;;;;;;;;;25.42;34.93;101591.50;5053472;27;99797;-86
2021/07/19 07:51:18;;;;;;;;;;;;;;;24.45;36.01;101584.22;5052408;28;96555;-86
2021/07/19 07:53:48;;;;;;;;;;;;;;;24.73;35.78;101590.09;5031742;28;97088;-86
2021/07/19 07:56:34;;;;;;;;;;;;;;;25.71;34.03;101587.22;5056352;27;98263;-84
2021/07/19 07:59:00;;;;;;;;;;;;;;;24.74;35.36;101584.56;5041967;27;100184;-83
2021/07/19 08:01:31;;;;;;;;;;;;;;;25.11;34.69;101584.25;5058573;27;96087;-86
2021/07/19 08:03:57;;;;;;;;;;;;;;;25.20;34.82;101573.53;5060762;27;96500;-87
2021/07/19 08:06:23;;;;;;;;;;;;;;;25.48;34.28;101577.44;5058770;27;99574;-86
2021/07/19 08:08:50;;;;;;;;;;;;;;;25.23;34.73;101577.81;5063202;27;99454;-86
2021/07/19 08:11:19;;;;;;;;;;;;;;;25.49;34.06;101576.47;5059679;27;96385;-86
2021/07/19 08:14:04;;;;;;;;;;;;;;;25.37;34.58;101574.81;5058288;27;96975;-84
2021/07/19 08:16:34;;;;;;;;;;;;;;;25.45;33.92;101569.59;5058357;27;96892;-85
2021/07/19 08:19:00;;;;;;;;;;;;;;;25.57;33.11;101571.28;5047637;27;98538;-85
2021/07/19 08:21:31;;;;;;;;;;;;;;;26.07;32.89;101569.59;5048727;27;98748;-87
2021/07/19 08:24:00;;;;;;;;;;;;;;;26.35;32.52;101567.22;5051824;27;96623;-89
2021/07/19 08:26:40;;;;;;;;;;;;;;;25.04;34.79;101564.09;5061217;27;98575;-83
2021/07/19 08:29:07;;;;;;;;;;;;;;;25.83;33.33;101565.47;5048445;27;98054;-86
2021/07/19 08:31:45;;;;;;;;;;;;;;;26.09;31.83;101567.63;5044658;27;97354;-86
2021/07/19 08:34:12;;;;;;;;;;;;;;;26.72;31.13;101565.59;5041670;27;97288;-86
2021/07/19 08:36:40;;;;;;;;;;;;;;;26.89;31.15;101577.69;5027597;28;100340;-84
2021/07/19 08:39:07;;;;;;;;;;;;;;;26.27;31.95;101577.84;5024632;27;100755;-86
2021/07/19 08:41:33;;;;;;;;;;;;;;;25.87;32.35;101578.59;5028930;27;98568;-88
2021/07/19 08:44:05;;;;;;;;;;;;;;;26.02;32.39;101577.28;5026287;28;97296;-86
2021/07/19 08:46:31;;;;;;;;;;;;;;;25.20;33.94;101576.22;5031202;28;96661;-85
2021/07/19 08:51:57;;;;;;;;;;;;;;;26.16;32.48;101579.66;5061550;27;2651320;-84
2021/07/19 08:54:24;;;;;;;;;;;;;;;26.40;32.06;101560.38;5148684;27;96548;-85
2021/07/19 08:56:58;;;;;;;;;;;;;;;25.74;32.84;101567.13;5129710;27;100206;-88
2021/07/19 08:59:25;;;;;;;;;;;;;;;25.81;32.88;101571.03;5118107;27;99073;-87
2021/07/19 09:01:54;;;;;;;;;;;;;;;26.10;32.40;101568.50;5145244;27;97689;-88
2021/07/19 09:04:22;;;;;;;;;;;;;;;26.32;31.73;101578.34;5138164;27;98024;-85
2021/07/19 09:06:51;;;;;;;;;;;;;;;26.42;30.91;101565.66;5133510;27;99476;-84
2021/07/19 09:09:28;;;;;;;;;;;;;;;26.40;31.12;101565.78;5117898;27;97803;-87
2021/07/19 09:11:55;;;;;;;;;;;;;;;26.40;31.30;101564.94;5146284;27;96808;-86
2021/07/19 09:14:21;;;;;;;;;;;;;;;26.01;32.03;101562.03;5140281;27;96670;-86
2021/07/19 09:16:51;;;;;;;;;;;;;;;26.25;31.90;101558.19;5153199;27;98130;-82
2021/07/19 09:19:18;;;;;;;;;;;;;;;26.72;30.80;101553.91;5143873;27;96706;-85
2021/07/19 09:21:52;;;;;;;;;;;;;;;26.17;31.22;101556.13;5146629;27;96761;-86
2021/07/19 09:24:24;;;;;;;;;;;;;;;25.90;31.87;101559.41;5125634;27;97287;-85
2021/07/19 09:27:07;;;;;;;;;;;;;;;25.76;32.17;101563.31;5133312;27;98693;-86
2021/07/19 09:32:18;;;;;;;;;;;;;;;25.63;32.29;101565.34;5143050;27;97509;-84
2021/07/19 09:34:53;;;;;;;;;;;;;;;25.25;32.93;101554.19;5142031;27;96848;-85
2021/07/19 09:37:19;;;;;;;;;;;;;;;25.55;32.71;101564.25;5141844;27;98848;-85
2021/07/19 09:39:47;;;;;;;;;;;;;;;25.57;32.56;101571.28;5146910;27;100957;-84
2021/07/19 09:42:15;;;;;;;;;;;;;;;25.70;32.79;101565.69;5144078;27;97025;-84
2021/07/19 09:44:53;;;;;;;;;;;;;;;26.44;31.63;101560.97;5140206;27;96840;-85
2021/07/19 09:47:20;;;;;;;;;;;;;;;26.23;32.02;101563.72;5111734;27;97503;-85
2021/07/19 09:49:47;;;;;;;;;;;;;;;25.79;32.79;101562.19;5140598;27;98344;-85
2021/07/19 09:52:14;;;;;;;;;;;;;;;26.06;32.17;101554.34;5140633;27;96963;-85
2021/07/19 09:54:41;;;;;;;;;;;;;;;26.30;31.75;101556.78;5145014;27;96808;-85
2021/07/19 09:57:10;;;;;;;;;;;;;;;26.14;32.23;101561.81;5122496;27;97742;-84
2021/07/19 10:00:01;;;;;;;;;;;;;;;26.35;32.10;101557.22;5131035;27;100089;-85
2021/07/19 10:02:35;;;;;;;;;;;;;;;26.93;31.24;101558.28;5121813;27;96762;-86
2021/07/19 10:05:02;;;;;;;;;;;;;;;26.00;32.26;101560.31;5113934;27;96837;-85
2021/07/19 10:07:46;;;;;;;;;;;;;;;25.70;32.65;101555.72;5124988;27;99321;-83
2021/07/19 10:10:15;;;;;;;;;;;;;;;25.71;32.55;101562.84;5114993;27;99253;-86
2021/07/19 10:12:42;;;;;;;;;;;;;;;25.75;32.40;101553.47;5126475;27;96788;-86
2021/07/19 10:15:12;;;;;;;;;;;;;;;25.52;32.82;101564.53;5127190;27;96798;-86
2021/07/19 10:17:39;;;;;;;;;;;;;;;24.82;34.75;101565.84;5128738;27;98653;-87
2021/07/19 10:20:06;;;;;;;;;;;;;;;25.23;33.45;101570.56;5130243;27;100072;-86
2021/07/19 10:22:33;;;;;;;;;;;;;;;23.96;35.87;101556.66;5126202;27;96783;-87
2021/07/19 10:25:01;;;;;;;;;;;;;;;24.09;35.77;101563.66;5130233;27;97154;-87
2021/07/19 10:27:28;;;;;;;;;;;;;;;23.83;36.06;101570.25;5110180;27;97406;-86
2021/07/19 10:29:59;;;;;;;;;;;;;;;24.27;35.88;101558.69;5124353;27;98906;-86
2021/07/19 10:32:27;;;;;;;;;;;;;;;24.85;35.30;101565.59;5137550;27;97442;-85
2021/07/19 10:34:55;;;;;;;;;;;;;;;25.56;34.90;101564.13;5140735;27;97878;-83
2021/07/19 10:37:23;;;;;;;;;;;;;;;25.90;34.56;101567.53;5130796;27;99238;-83
2021/07/19 10:40:01;;;;;;;;;;;;;;;25.76;35.12;101565.16;5136610;27;97218;-85
2021/07/19 10:42:43;;;;;;;;;;;;;;;26.08;34.38;101557.78;5137890;27;96725;-82
2021/07/19 10:45:11;;;;;;;;;;;;;;;25.57;35.74;101571.28;5089452;27;96726;-86
2021/07/19 10:47:53;;;;;;;;;;;;;;;25.21;35.88;101566.25;5134333;27;98522;-86
2021/07/19 10:50:28;;;;;;;;;;;;;;;25.11;35.59;101570.72;5120363;27;99673;-85
2021/07/19 10:53:09;;;;;;;;;;;;;;;25.51;35.10;101569.09;5134395;27;96679;-83
2021/07/19 10:55:39;;;;;;;;;;;;;;;25.21;35.30;101577.06;5129357;27;96831;-84
2021/07/19 10:58:14;;;;;;;;;;;;;;;26.06;34.06;101580.56;5138489;27;100111;-86
2021/07/19 11:03:24;;;;;;;;;;;;;;;25.99;33.45;101571.28;5113232;27;96766;-85
2021/07/19 11:06:01;;;;;;;;;;;;;;;26.04;33.65;101578.00;5129750;27;97102;-85
2021/07/19 11:08:30;;;;;;;;;;;;;;;25.75;33.41;101576.97;5123966;27;97090;-85
2021/07/19 11:10:59;;;;;;;;;;;;;;;26.31;32.27;101571.19;5131401;27;99314;-87
2021/07/19 11:13:30;;;;;;;;;;;;;;;26.11;32.92;101570.22;5125669;27;96984;-86
2021/07/19 11:15:59;;;;;;;;;;;;;;;25.91;33.09;101576.50;5124570;27;97898;-86
2021/07/19 11:18:28;;;;;;;;;;;;;;;25.66;33.78;101573.22;5129179;27;99158;-88
2021/07/19 11:21:21;;;;;;;;;;;;;;;26.01;33.05;101559.31;5127832;27;98948;-88
2021/07/19 11:23:48;;;;;;;;;;;;;;;26.20;32.67;101563.97;5128970;27;97429;-84
2021/07/19 11:26:20;;;;;;;;;;;;;;;26.52;31.83;101570.13;5137367;27;98013;-85
2021/07/19 11:28:46;;;;;;;;;;;;;;;25.97;32.50;101567.84;5141573;27;100227;-84
2021/07/19 11:31:15;;;;;;;;;;;;;;;27.00;31.56;101565.84;5142587;27;98018;-84
2021/07/19 11:33:43;;;;;;;;;;;;;;;27.30;30.36;101563.88;5140988;27;96698;-85
2021/07/19 11:39:17;;;;;;;;;;;;;;;27.64;29.98;101555.28;5120796;27;98853;-83
2021/07/19 11:41:58;;;;;;;;;;;;;;;27.62;30.16;101558.19;5133092;27;99484;-84
2021/07/19 11:44:27;;;;;;;;;;;;;;;28.11;29.22;101567.06;5120556;27;96645;-83
2021/07/19 11:46:54;;;;;;;;;;;;;;;27.73;29.91;101562.59;5123904;27;96946;-84
2021/07/19 11:49:23;;;;;;;;;;;;;;;28.44;29.48;101562.94;5123311;27;100929;-84
2021/07/19 11:51:50;;;;;;;;;;;;;;;28.26;29.36;101559.31;5115907;27;98099;-85
2021/07/19 11:54:20;;;;;;;;;;;;;;;27.57;30.39;101560.44;5119684;27;98523;-84
2021/07/19 11:56:49;;;;;;;;;;;;;;;27.81;30.22;101554.56;5116347;27;96898;-87
2021/07/19 11:59:19;;;;;;;;;;;;;;;27.33;30.87;101551.88;5122304;27;100288;-87
2021/07/19 12:01:45;;;;;;;;;;;;;;;28.24;29.47;101545.00;5116564;27;97982;-83
2021/07/19 12:04:12;;;;;;;;;;;;;;;27.95;29.96;101543.25;5121989;27;96768;-84
2021/07/19 12:06:39;;;;;;;;;;;;;;;28.23;29.68;101537.88;5118940;27;97404;-84
2021/07/19 12:09:07;;;;;;;;;;;;;;;28.30;29.02;101538.97;5105286;27;98725;-85
2021/07/19 12:11:35;;;;;;;;;;;;;;;28.35;29.40;101544.84;5116144;27;98216;-85
2021/07/19 12:14:08;;;;;;;;;;;;;;;28.41;29.56;101546.97;5120468;27;98554;-86
2021/07/19 12:16:36;;;;;;;;;;;;;;;28.29;29.57;101542.72;5126108;27;97139;-84
2021/07/19 12:19:07;;;;;;;;;;;;;;;27.53;30.69;101552.75;5124533;27;100668;-85
2021/07/19 12:21:38;;;;;;;;;;;;;;;27.11;31.02;101544.84;5120358;27;99908;-83
2021/07/19 12:24:04;;;;;;;;;;;;;;;26.97;31.44;101545.31;5119750;27;97313;-85
2021/07/19 12:26:40;;;;;;;;;;;;;;;27.41;30.98;101540.31;5118106;27;97069;-84
2021/07/19 12:29:07;;;;;;;;;;;;;;;26.98;31.62;101539.72;5127552;27;101024;-85
2021/07/19 12:31:36;;;;;;;;;;;;;;;27.51;30.60;101536.56;5133556;27;99774;-85
2021/07/19 12:34:06;;;;;;;;;;;;;;;27.15;31.41;101546.31;5128934;27;96811;-85
2021/07/19 12:36:39;;;;;;;;;;;;;;;27.27;30.54;101542.44;5120088;27;96886;-84
2021/07/19 12:39:07;;;;;;;;;;;;;;;27.51;30.36;101538.41;5134869;27;101023;-85
2021/07/19 12:41:50;;;;;;;;;;;;;;;27.29;30.60;101536.88;5119609;27;98037;-82
2021/07/19 12:44:33;;;;;;;;;;;;;;;26.80;31.08;101529.69;5121179;27;97383;-84
2021/07/19 12:46:59;;;;;;;;;;;;;;;27.35;30.61;101531.75;5133632;27;97384;-86
2021/07/19 12:49:30;;;;;;;;;;;;;;;27.66;29.89;101537.00;5130219;27;98943;-84
2021/07/19 12:52:00;;;;;;;;;;;;;;;26.93;31.38;101531.16;5127050;27;98622;-86
2021/07/19 12:54:28;;;;;;;;;;;;;;;27.54;30.37;101530.03;5129482;27;97278;-85
2021/07/19 12:56:54;;;;;;;;;;;;;;;27.73;29.67;101532.72;5148386;27;97289;-84
2021/07/19 12:59:23;;;;;;;;;;;;;;;28.36;28.45;101531.06;5111056;27;97822;-84
2021/07/19 13:01:54;;;;;;;;;;;;;;;28.41;29.09;101527.94;5129195;27;98549;-85
2021/07/19 13:04:23;;;;;;;;;;;;;;;28.26;29.14;101532.13;5128138;27;96677;-85
2021/07/19 13:06:50;;;;;;;;;;;;;;;28.42;28.28;101532.38;5129288;27;96833;-83
2021/07/19 13:09:21;;;;;;;;;;;;;;;28.57;28.30;101522.66;5128002;27;100511;-85
2021/07/19 13:11:52;;;;;;;;;;;;;;;28.81;27.85;101531.16;5129519;27;102100;-86
2021/07/19 13:14:20;;;;;;;;;;;;;;;28.55;28.06;101524.72;5122950;27;97207;-85
2021/07/19 13:16:58;;;;;;;;;;;;;;;28.06;28.85;101526.75;5133875;27;96721;-86
2021/07/19 13:19:32;;;;;;;;;;;;;;;27.92;29.26;101521.78;5133305;27;96933;-84
2021/07/19 13:21:58;;;;;;;;;;;;;;;27.30;29.84;101534.03;5132244;27;100086;-84
2021/07/19 13:24:25;;;;;;;;;;;;;;;27.68;29.53;101527.72;5128618;27;96697;-84
2021/07/19 13:26:51;;;;;;;;;;;;;;;27.92;29.17;101521.78;5126036;27;96739;-86
2021/07/19 13:29:18;;;;;;;;;;;;;;;26.61;30.45;101525.06;5133489;27;98197;-84
2021/07/19 13:31:44;;;;;;;;;;;;;;;27.04;30.46;101532.03;5134518;27;97579;-86
2021/07/19 13:34:19;;;;;;;;;;;;;;;26.84;30.68;101525.69;5128453;27;97706;-83
2021/07/19 13:36:49;;;;;;;;;;;;;;;26.55;30.76;101526.50;5139441;27;96679;-83
2021/07/19 13:39:25;;;;;;;;;;;;;;;27.19;30.24;101528.75;5118452;27;97840;-84
2021/07/19 13:42:00;;;;;;;;;;;;;;;26.51;31.35;101519.66;5141297;27;97808;-85
2021/07/19 13:44:27;;;;;;;;;;;;;;;26.56;31.21;101516.50;5142758;27;96784;-84
2021/07/19 13:46:57;;;;;;;;;;;;;;;26.67;30.87;101523.66;5136542;27;96771;-83
2021/07/19 13:49:25;;;;;;;;;;;;;;;26.73;30.90;101517.66;5142628;27;98975;-85
2021/07/19 13:51:52;;;;;;;;;;;;;;;27.00;30.77;101520.59;5126248;27;98915;-84
2021/07/19 13:54:22;;;;;;;;;;;;;;;26.66;31.17;101521.94;5144770;27;95924;-87
2021/07/19 13:56:49;;;;;;;;;;;;;;;26.71;31.12;101525.09;5138602;27;96340;-83
2021/07/19 13:59:15;;;;;;;;;;;;;;;26.41;30.99;101518.75;5125815;27;98945;-85
2021/07/19 14:01:42;;;;;;;;;;;;;;;25.47;32.71;101526.19;5133512;27;99918;-86
2021/07/19 14:04:08;;;;;;;;;;;;;;;26.08;31.93;101519.00;5131042;27;97091;-85
2021/07/19 14:06:39;;;;;;;;;;;;;;;26.15;31.85;101521.03;5134109;27;96749;-86
2021/07/19 14:09:07;;;;;;;;;;;;;;;26.18;31.43;101517.22;5128404;27;97653;-86
2021/07/19 14:11:34;;;;;;;;;;;;;;;26.11;31.99;101513.34;5125873;27;96553;-85
2021/07/19 14:14:00;;;;;;;;;;;;;;;26.72;31.08;101513.25;5117479;27;97316;-84
2021/07/19 14:16:27;;;;;;;;;;;;;;;26.57;31.73;101521.81;5126414;27;96845;-87
2021/07/19 14:18:53;;;;;;;;;;;;;;;26.84;30.80;101525.69;5117275;27;100329;-86
2021/07/19 14:21:21;;;;;;;;;;;;;;;27.09;30.19;101517.03;5127042;27;99799;-86
2021/07/19 14:23:55;;;;;;;;;;;;;;;26.45;31.58;101522.06;5128377;22;97138;-85
2021/07/19 14:26:22;;;;;;;;;;;;;;;26.80;30.95;101518.81;5060840;27;96709;-87
2021/07/19 14:28:56;;;;;;;;;;;;;;;26.50;31.26;101511.66;5068330;27;100916;-87
2021/07/19 14:31:24;;;;;;;;;;;;;;;26.36;31.81;101503.91;5064437;27;98891;-86
2021/07/19 14:33:52;;;;;;;;;;;;;;;26.42;31.13;101509.63;5066483;27;96984;-88
2021/07/19 14:36:20;;;;;;;;;;;;;;;26.24;32.02;101504.97;5071110;27;97179;-87
2021/07/19 14:38:48;;;;;;;;;;;;;;;25.78;32.77;101504.47;5071476;27;99382;-87
2021/07/19 14:44:11;;;;;;;;;;;;;;;26.94;30.78;101502.19;5068999;27;96601;-87
2021/07/19 14:46:38;;;;;;;;;;;;;;;27.38;30.27;101498.88;5042614;22;98139;-85
2021/07/19 14:49:05;;;;;;;;;;;;;;;27.31;30.26;101496.88;5026871;27;97181;-86
2021/07/19 14:51:32;;;;;;;;;;;;;;;27.90;28.49;101493.91;5020923;28;99462;-87
2021/07/19 14:54:08;;;;;;;;;;;;;;;28.50;27.53;101492.53;5024570;27;97031;-88
2021/07/19 14:56:35;;;;;;;;;;;;;;;30.13;24.82;101483.88;5033964;27;96814;-86
2021/07/19 14:59:02;;;;;;;;;;;;;;;29.17;25.65;101498.50;5022848;27;99733;-85
2021/07/19 15:04:25;;;;;;;;;;;;;;;28.58;26.80;101488.19;5025408;27;96895;-85
2021/07/19 15:06:58;;;;;;;;;;;;;;;33.13;21.41;101491.72;5026347;28;98448;-84
2021/07/19 15:09:25;;;;;;;;;;;;;;;31.38;23.87;101494.75;5022381;28;98044;-86
2021/07/19 15:12:06;;;;;;;;;;;;;;;30.14;25.09;101487.47;5017787;27;99730;-86
2021/07/19 15:14:33;;;;;;;;;;;;;;;28.92;26.54;101492.84;5008218;28;96686;-86
2021/07/19 15:17:02;;;;;;;;;;;;;;;28.79;26.95;101486.94;5024011;28;96932;-82
2021/07/19 15:19:33;;;;;;;;;;;;;;;28.37;27.59;101486.59;5016487;27;98088;-88
2021/07/19 15:24:41;;;;;;;;;;;;;;;27.65;28.99;101470.13;5021769;28;97464;-86
2021/07/19 15:29:49;;;;;;;;;;;;;;;27.21;29.49;101477.91;5029345;27;98682;-87
2021/07/19 15:32:17;;;;;;;;;;;;;;;26.62;30.45;101480.72;5026212;28;96834;-85
2021/07/19 15:34:54;;;;;;;;;;;;;;;26.73;30.28;101485.13;5028574;27;96867;-86
2021/07/19 15:37:27;;;;;;;;;;;;;;;26.72;30.00;101473.44;5421428;22;101159;-87
2021/07/19 15:39:55;;;;;;;;;;;;;;;26.98;29.48;101478.38;5052435;27;99678;-89
2021/07/19 15:42:30;;;;;;;;;;;;;;;27.23;28.93;101470.50;5045620;28;99072;-89
2021/07/19 15:44:58;;;;;;;;;;;;;;;27.10;29.38;101472.66;5042083;27;96929;-87
2021/07/19 15:47:35;;;;;;;;;;;;;;;26.63;29.86;101473.44;5049517;28;96646;-86
2021/07/19 15:50:05;;;;;;;;;;;;;;;27.01;29.33;101467.22;5033075;27;99149;-85
2021/07/19 15:52:32;;;;;;;;;;;;;;;27.32;28.92;101466.91;5043934;27;98893;-84
2021/07/19 15:54:59;;;;;;;;;;;;;;;27.07;29.24;101470.22;5044985;27;96811;-86
2021/07/19 15:57:27;;;;;;;;;;;;;;;27.27;29.05;101476.47;5034732;28;96903;-85
2021/07/19 15:59:54;;;;;;;;;;;;;;;26.50;30.45;101471.00;5044473;27;99294;-85
2021/07/19 16:02:20;;;;;;;;;;;;;;;27.08;29.68;101469.22;5036444;27;96641;-87
2021/07/19 16:04:47;;;;;;;;;;;;;;;26.41;30.52;101474.53;5038287;28;96743;-86
2021/07/19 16:07:32;;;;;;;;;;;;;;;26.88;30.21;101473.75;5041643;28;97452;-86
2021/07/19 16:09:59;;;;;;;;;;;;;;;26.16;31.22;101473.16;5046170;28;97771;-86
2021/07/19 16:12:25;;;;;;;;;;;;;;;26.68;30.66;101471.16;5046815;27;101042;-85
2021/07/19 16:14:53;;;;;;;;;;;;;;;26.06;31.68;101475.81;5050644;27;96753;-85
2021/07/19 16:17:20;;;;;;;;;;;;;;;26.32;31.09;101464.53;5050743;27;96639;-87
2021/07/19 16:19:48;;;;;;;;;;;;;;;26.79;30.68;101471.00;5044240;27;97779;-85
2021/07/19 16:22:15;;;;;;;;;;;;;;;26.82;31.17;101478.88;5045613;27;99623;-86
2021/07/19 16:27:27;;;;;;;;;;;;;;;25.61;31.69;101472.59;5039001;28;96935;-85
2021/07/19 16:29:55;;;;;;;;;;;;;;;25.70;30.84;101473.66;5041197;27;100048;-85
2021/07/19 16:35:06;;;;;;;;;;;;;;;26.04;29.22;101471.53;5047919;28;96887;-86
2021/07/19 16:37:32;;;;;;;;;;;;;;;26.80;28.61;101465.47;5049588;27;96752;-84
2021/07/19 16:40:03;;;;;;;;;;;;;;;26.83;28.42;101469.75;5048655;27;101569;-85
2021/07/19 16:42:29;;;;;;;;;;;;;;;26.76;28.31;101469.47;5053173;27;100063;-85
2021/07/19 16:45:08;;;;;;;;;;;;;;;26.46;29.33;101469.53;5052808;27;96960;-87
2021/07/19 16:47:38;;;;;;;;;;;;;;;26.51;29.14;101459.16;5054854;27;96767;-88
2021/07/19 16:55:14;;;;;;;;;;;;;;;26.40;29.87;101465.53;5096556;27;96016;-89
2021/07/19 16:57:49;;;;;;;;;;;;;;;26.44;29.79;101466.13;5084803;27;97099;-87
2021/07/19 17:00:19;;;;;;;;;;;;;;;26.09;30.42;101474.69;5081804;27;98915;-88
2021/07/19 17:02:55;;;;;;;;;;;;;;;26.09;31.00;101475.53;5070998;27;98856;-88
2021/07/19 17:08:13;;;;;;;;;;;;;;;26.06;31.00;101472.25;5082390;27;97068;-86
2021/07/19 17:13:27;;;;;;;;;;;;;;;26.03;31.22;101472.53;5085142;27;96814;-86
2021/07/19 17:15:58;;;;;;;;;;;;;;;26.04;31.29;101469.69;5090297;27;97174;-86
2021/07/19 17:18:34;;;;;;;;;;;;;;;26.45;31.03;101473.28;5087857;27;96811;-87
2021/07/19 17:21:04;;;;;;;;;;;;;;;26.09;31.27;101475.53;5073338;27;99217;-88
2021/07/19 17:23:31;;;;;;;;;;;;;;;25.76;32.17;101468.56;5079486;27;99425;-85